createdAt,value
2022-12-14T00:02:06.711Z,-0.80
2022-12-14T00:04:35.315Z,-0.80
2022-12-14T00:07:03.868Z,-0.80
2022-12-14T00:09:32.288Z,-0.80
2022-12-14T00:12:00.526Z,-0.70
2022-12-14T00:14:29.019Z,-0.70
2022-12-14T00:16:58.763Z,-0.80
2022-12-14T00:19:27.285Z,-0.80
2022-12-14T00:21:56.241Z,-0.80
2022-12-14T00:24:24.674Z,-0.80
2022-12-14T00:26:53.378Z,-0.80
2022-12-14T00:29:21.830Z,-0.80
2022-12-14T00:31:52.263Z,-0.80
2022-12-14T00:34:22.087Z,-0.80
2022-12-14T00:36:50.471Z,-0.80
2022-12-14T00:39:18.848Z,-0.80
2022-12-14T00:41:47.265Z,-0.80
2022-12-14T00:44:15.711Z,-0.80
2022-12-14T00:46:44.004Z,-0.80
2022-12-14T00:49:12.588Z,-0.80
2022-12-14T00:51:42.220Z,-0.80
2022-12-14T00:54:10.589Z,-0.70
2022-12-14T00:56:38.997Z,-0.80
2022-12-14T00:59:07.681Z,-0.90
2022-12-14T01:01:36.847Z,-0.90
2022-12-14T01:04:22.558Z,-0.90
2022-12-14T01:06:53.373Z,-0.90
2022-12-14T01:09:23.203Z,-0.90
2022-12-14T01:11:53.187Z,-0.90
2022-12-14T01:14:23.168Z,-0.90
2022-12-14T01:16:51.593Z,-0.90
2022-12-14T01:19:20.294Z,-0.90
2022-12-14T01:21:48.595Z,-0.90
2022-12-14T01:24:18.501Z,-0.90
2022-12-14T01:26:46.963Z,-0.90
2022-12-14T01:29:16.358Z,-0.90
2022-12-14T01:31:44.904Z,-0.90
2022-12-14T01:34:17.359Z,-0.90
2022-12-14T01:36:45.878Z,-0.90
2022-12-14T01:39:16.125Z,-0.80
2022-12-14T01:41:49.670Z,-0.80
2022-12-14T01:44:56.166Z,-0.90
2022-12-14T01:47:37.727Z,-0.80
2022-12-14T01:50:12.412Z,-0.80
2022-12-14T01:52:44.659Z,-0.80
2022-12-14T01:55:15.900Z,-0.80
2022-12-14T01:57:50.105Z,-0.90
2022-12-14T02:00:18.743Z,-0.90
2022-12-14T02:02:52.240Z,-0.90
2022-12-14T02:05:23.788Z,-0.90
2022-12-14T02:07:54.106Z,-0.90
2022-12-14T02:10:23.997Z,-0.80
2022-12-14T02:12:59.792Z,-0.90
2022-12-14T02:15:28.794Z,-0.80
2022-12-14T02:17:58.039Z,-0.90
2022-12-14T02:20:31.695Z,-0.80
2022-12-14T02:23:45.163Z,-0.80
2022-12-14T02:26:53.788Z,-0.90
2022-12-14T02:29:51.524Z,-0.90
2022-12-14T02:32:44.919Z,-0.80
2022-12-14T02:35:18.582Z,-0.80
2022-12-14T02:37:58.018Z,-0.80
2022-12-14T02:40:35.074Z,-0.80
2022-12-14T02:43:13.294Z,-0.80
2022-12-14T02:45:45.272Z,-0.80
2022-12-14T02:48:19.557Z,-0.80
2022-12-14T02:50:54.958Z,-0.90
2022-12-14T02:53:29.434Z,-0.70
2022-12-14T02:56:03.231Z,-0.70
2022-12-14T02:58:36.267Z,-0.80
2022-12-14T03:01:05.904Z,-0.80
2022-12-14T03:03:35.774Z,-0.80
2022-12-14T03:06:14.789Z,-0.80
2022-12-14T03:08:46.189Z,-0.80
2022-12-14T03:11:19.696Z,-0.80
2022-12-14T03:13:53.270Z,-0.80
2022-12-14T03:16:24.521Z,-0.80
2022-12-14T03:18:59.221Z,-0.80
2022-12-14T03:21:32.036Z,-0.80
2022-12-14T03:24:04.114Z,-0.80
2022-12-14T03:26:36.022Z,-0.80
2022-12-14T03:29:07.962Z,-0.90
2022-12-14T03:31:43.084Z,-0.90
2022-12-14T03:34:22.788Z,-0.80
2022-12-14T03:36:55.204Z,-0.80
2022-12-14T03:39:28.621Z,-0.80
2022-12-14T03:42:04.972Z,-0.80
2022-12-14T03:44:45.209Z,-0.80
2022-12-14T03:47:29.911Z,-0.80
2022-12-14T03:50:04.630Z,-0.80
2022-12-14T03:52:37.356Z,-0.90
2022-12-14T03:55:17.684Z,-0.80
2022-12-14T03:58:01.007Z,-0.80
2022-12-14T04:00:37.546Z,-0.80
2022-12-14T04:03:17.657Z,-0.90
2022-12-14T04:05:52.744Z,-0.80
2022-12-14T04:08:29.807Z,-0.90
2022-12-14T04:11:18.875Z,-0.80
2022-12-14T04:14:15.053Z,-0.80
2022-12-14T04:17:03.337Z,-0.80
2022-12-14T04:19:36.874Z,-0.80
2022-12-14T04:22:08.966Z,-0.80
2022-12-14T04:24:59.230Z,-0.80
2022-12-14T04:27:36.475Z,-0.90
2022-12-14T04:30:05.776Z,-0.80
2022-12-14T04:32:38.286Z,-0.90
2022-12-14T04:35:13.526Z,-0.90
2022-12-14T04:37:46.421Z,-0.90
2022-12-14T04:40:22.761Z,-0.90
2022-12-14T04:42:54.494Z,-0.90
2022-12-14T04:45:28.504Z,-0.90
2022-12-14T04:48:04.270Z,-0.90
2022-12-14T04:50:36.616Z,-0.90
2022-12-14T04:53:13.002Z,-0.90
2022-12-14T04:55:47.388Z,-0.90
2022-12-14T04:58:21.675Z,-0.90
2022-12-14T05:01:04.612Z,-0.90
2022-12-14T05:03:37.225Z,-0.90
2022-12-14T05:06:10.195Z,-0.90
2022-12-14T05:08:57.009Z,-0.90
2022-12-14T05:11:52.501Z,-0.90
2022-12-14T05:14:23.328Z,-0.90
2022-12-14T05:16:51.868Z,-0.90
2022-12-14T05:19:26.412Z,-0.90
2022-12-14T05:21:56.073Z,-0.90
2022-12-14T05:24:25.866Z,-1.00
2022-12-14T05:26:54.285Z,-1.00
2022-12-14T05:29:22.686Z,-0.90
2022-12-14T05:31:52.130Z,-1.00
2022-12-14T05:34:20.476Z,-1.00
2022-12-14T05:36:48.783Z,-1.10
2022-12-14T05:39:17.492Z,-1.10
2022-12-14T05:41:47.348Z,-1.00
2022-12-14T05:44:15.781Z,-1.00
2022-12-14T05:46:44.171Z,-1.00
2022-12-14T05:49:12.594Z,-0.90
2022-12-14T05:51:41.697Z,-1.00
2022-12-14T05:54:10.094Z,-1.10
2022-12-14T05:56:38.578Z,-1.20
2022-12-14T05:59:08.304Z,-1.20
2022-12-14T06:01:36.760Z,-1.20
2022-12-14T06:04:05.483Z,-1.30
2022-12-14T06:06:35.057Z,-1.30
2022-12-14T06:09:06.487Z,-1.30
2022-12-14T06:11:37.892Z,-1.30
2022-12-14T06:14:08.034Z,-1.30
2022-12-14T06:16:37.335Z,-1.30
2022-12-14T06:19:06.326Z,-1.30
2022-12-14T06:21:36.480Z,-1.40
2022-12-14T06:24:06.366Z,-1.50
2022-12-14T06:26:37.486Z,-1.50
2022-12-14T06:29:07.817Z,-1.50
2022-12-14T06:31:38.229Z,-1.60
2022-12-14T06:34:06.886Z,-1.50
2022-12-14T06:36:37.128Z,-1.30
2022-12-14T06:39:06.912Z,-1.40
2022-12-14T06:41:35.701Z,-1.50
2022-12-14T06:44:07.102Z,-1.50
2022-12-14T06:46:38.144Z,-1.50
2022-12-14T06:49:07.613Z,-1.50
2022-12-14T06:51:40.603Z,-1.60
2022-12-14T06:54:09.238Z,-1.60
2022-12-14T06:56:40.714Z,-1.60
2022-12-14T06:59:09.872Z,-1.60
2022-12-14T07:01:40.814Z,-1.60
2022-12-14T07:04:10.258Z,-1.70
2022-12-14T07:06:40.357Z,-1.80
2022-12-14T07:09:09.724Z,-1.80
2022-12-14T07:11:38.434Z,-1.80
2022-12-14T07:14:07.335Z,-1.90
2022-12-14T07:16:37.012Z,-2.00
2022-12-14T07:19:06.747Z,-2.00
2022-12-14T07:21:35.308Z,-2.00
2022-12-14T07:24:03.627Z,-2.10
2022-12-14T07:26:32.037Z,-2.10
2022-12-14T07:29:01.657Z,-2.10
2022-12-14T07:31:30.751Z,-2.10
2022-12-14T07:34:00.946Z,-2.20
2022-12-14T07:36:33.071Z,-2.20
2022-12-14T07:39:01.449Z,-2.20
2022-12-14T07:41:31.901Z,-2.20
2022-12-14T07:44:01.972Z,-2.20
2022-12-14T07:46:32.306Z,-2.30
2022-12-14T07:49:01.651Z,-2.30
2022-12-14T07:51:33.507Z,-2.30
2022-12-14T07:54:02.805Z,-2.30
2022-12-14T07:56:32.859Z,-2.40
2022-12-14T07:59:03.191Z,-2.30
2022-12-14T08:01:33.695Z,-2.40
2022-12-14T08:04:05.892Z,-2.40
2022-12-14T08:06:36.836Z,-2.40
2022-12-14T08:09:05.740Z,-2.40
2022-12-14T08:11:34.374Z,-2.40
2022-12-14T08:14:04.345Z,-2.50
2022-12-14T08:16:34.086Z,-2.40
2022-12-14T08:19:03.076Z,-2.40
2022-12-14T08:21:31.935Z,-2.40
2022-12-14T08:24:01.612Z,-2.30
2022-12-14T08:26:35.166Z,-2.30
2022-12-14T08:29:04.198Z,-2.10
2022-12-14T08:31:33.607Z,-2.30
2022-12-14T08:34:02.654Z,-2.40
2022-12-14T08:36:34.175Z,-2.50
2022-12-14T08:39:05.992Z,-2.40
2022-12-14T08:41:35.121Z,-2.40
2022-12-14T08:44:04.922Z,-2.30
2022-12-14T08:46:34.792Z,-2.30
2022-12-14T08:49:03.384Z,-2.30
2022-12-14T08:51:32.055Z,-2.30
2022-12-14T08:54:00.486Z,-2.20
2022-12-14T08:56:30.429Z,-2.10
2022-12-14T08:58:59.078Z,-2.10
2022-12-14T09:01:33.518Z,-2.00
2022-12-14T09:04:07.890Z,-1.90
2022-12-14T09:06:38.570Z,-1.80
2022-12-14T09:09:11.894Z,-1.80
2022-12-14T09:11:45.944Z,-1.70
2022-12-14T09:14:14.548Z,-1.70
2022-12-14T09:16:43.059Z,-1.80
2022-12-14T09:19:11.389Z,-1.70
2022-12-14T09:21:39.971Z,-1.60
2022-12-14T09:24:08.611Z,-1.60
2022-12-14T09:26:37.240Z,-0.70
2022-12-14T09:29:06.844Z,-0.90
2022-12-14T09:31:35.298Z,-1.20
2022-12-14T09:34:04.307Z,-1.20
2022-12-14T09:36:32.783Z,-1.20
2022-12-14T09:39:01.180Z,-1.20
2022-12-14T09:41:39.878Z,-1.20
2022-12-14T09:44:18.806Z,-1.20
2022-12-14T09:46:56.058Z,-1.00
2022-12-14T09:49:29.651Z,-0.90
2022-12-14T09:52:01.356Z,-0.90
2022-12-14T09:54:31.802Z,-0.80
2022-12-14T09:57:05.705Z,-0.60
2022-12-14T09:59:35.922Z,-0.60
2022-12-14T10:02:33.160Z,1.50
2022-12-14T10:05:24.890Z,3.00
2022-12-14T10:08:02.967Z,0.60
2022-12-14T10:10:38.676Z,0.10
2022-12-14T10:13:16.792Z,0.00
2022-12-14T10:15:56.786Z,0.00
2022-12-14T10:21:28.205Z,0.10
2022-12-14T10:24:00.155Z,0.10
2022-12-14T10:26:33.482Z,0.10
2022-12-14T10:29:08.687Z,0.20
2022-12-14T10:31:45.840Z,0.20
2022-12-14T10:34:19.695Z,0.30
2022-12-14T10:36:56.550Z,0.40
2022-12-14T10:39:49.812Z,0.40
2022-12-14T10:42:25.243Z,0.50
2022-12-14T10:45:39.243Z,0.70
2022-12-14T10:48:07.187Z,0.70
2022-12-14T10:50:49.974Z,0.80
2022-12-14T10:53:23.895Z,0.90
2022-12-14T10:55:55.593Z,0.90
2022-12-14T10:58:24.059Z,1.00
2022-12-14T11:00:54.821Z,1.40
2022-12-14T11:03:24.831Z,1.20
2022-12-14T11:05:59.342Z,1.20
2022-12-14T11:08:42.560Z,1.30
2022-12-14T11:11:18.814Z,1.30
2022-12-14T11:13:55.924Z,1.30
2022-12-14T11:16:36.572Z,1.40
2022-12-14T11:19:16.083Z,1.40
2022-12-14T11:21:45.425Z,1.40
2022-12-14T11:24:26.097Z,1.50
2022-12-14T11:26:59.078Z,1.50
2022-12-14T11:29:32.351Z,1.60
2022-12-14T11:32:01.725Z,1.60
2022-12-14T11:34:37.860Z,1.70
2022-12-14T11:37:14.552Z,1.60
2022-12-14T11:39:44.339Z,1.70
2022-12-14T11:42:19.423Z,1.70
2022-12-14T11:44:49.671Z,1.70
2022-12-14T11:47:20.512Z,1.80
2022-12-14T11:49:51.696Z,1.70
2022-12-14T11:52:22.113Z,1.70
2022-12-14T11:55:10.951Z,1.80
2022-12-14T11:57:48.985Z,1.80
2022-12-14T12:00:26.151Z,1.90
2022-12-14T12:03:01.192Z,1.90
2022-12-14T12:05:33.582Z,2.00
2022-12-14T12:08:03.393Z,2.10
2022-12-14T12:10:38.935Z,2.10
2022-12-14T12:13:17.354Z,2.20
2022-12-14T12:15:51.961Z,2.20
2022-12-14T12:18:27.585Z,2.30
2022-12-14T12:21:02.616Z,2.40
2022-12-14T12:23:36.927Z,2.50
2022-12-14T12:26:13.379Z,2.40
2022-12-14T12:28:47.629Z,2.50
2022-12-14T12:31:23.431Z,2.60
2022-12-14T12:33:57.479Z,2.60
2022-12-14T12:36:27.630Z,2.60
2022-12-14T12:39:05.489Z,2.70
2022-12-14T12:41:42.899Z,2.80
2022-12-14T12:44:41.789Z,2.70
2022-12-14T12:47:32.314Z,2.80
2022-12-14T12:50:06.476Z,2.70
2022-12-14T12:52:48.274Z,2.70
2022-12-14T12:55:19.268Z,2.70
2022-12-14T12:57:50.382Z,2.80
2022-12-14T13:00:20.934Z,2.80
2022-12-14T13:02:54.049Z,2.90
2022-12-14T13:08:23.798Z,2.90
2022-12-14T13:13:46.675Z,2.90
2022-12-14T13:16:23.007Z,2.90
2022-12-14T13:19:04.900Z,2.90
2022-12-14T13:21:50.887Z,2.90
2022-12-14T13:24:22.856Z,2.90
2022-12-14T13:27:32.555Z,2.90
2022-12-14T13:30:20.660Z,2.90
2022-12-14T13:33:02.084Z,2.90
2022-12-14T13:35:47.973Z,2.90
2022-12-14T13:38:34.112Z,2.90
2022-12-14T13:41:25.598Z,2.90
2022-12-14T13:44:11.590Z,2.90
2022-12-14T13:46:40.260Z,3.00
2022-12-14T13:49:17.975Z,3.00
2022-12-14T13:51:50.349Z,3.00
2022-12-14T13:54:27.839Z,3.00
2022-12-14T13:57:06.490Z,3.00
2022-12-14T13:59:38.069Z,3.00
2022-12-14T14:02:08.183Z,3.00
2022-12-14T14:04:36.955Z,3.10
2022-12-14T14:07:39.400Z,3.10
2022-12-14T14:10:28.136Z,3.20
2022-12-14T14:12:57.913Z,3.20
2022-12-14T14:15:38.116Z,3.20
2022-12-14T14:18:15.480Z,3.20
2022-12-14T14:20:45.813Z,3.30
2022-12-14T14:23:38.406Z,3.30
2022-12-14T14:26:24.572Z,3.30
2022-12-14T14:29:19.334Z,3.30
2022-12-14T14:31:50.542Z,3.20
2022-12-14T14:34:23.399Z,3.10
2022-12-14T14:36:52.500Z,3.10
2022-12-14T14:42:25.456Z,3.00
2022-12-14T14:44:58.573Z,2.90
2022-12-14T14:47:30.134Z,2.80
2022-12-14T14:50:02.261Z,2.80
2022-12-14T14:52:55.223Z,2.80
2022-12-14T14:56:05.320Z,2.70
2022-12-14T14:58:36.172Z,2.60
2022-12-14T15:01:25.894Z,2.50
2022-12-14T15:03:57.717Z,2.50
2022-12-14T15:06:29.228Z,2.40
2022-12-14T15:09:06.381Z,2.40
2022-12-14T15:11:43.707Z,2.40
2022-12-14T15:14:35.538Z,2.10
2022-12-14T15:17:16.206Z,2.10
2022-12-14T15:19:49.361Z,2.00
2022-12-14T15:22:20.389Z,2.00
2022-12-14T15:24:52.142Z,1.90
2022-12-14T15:27:25.706Z,1.80
2022-12-14T15:29:55.667Z,1.70
2022-12-14T15:32:26.340Z,1.60
2022-12-14T15:34:57.092Z,1.60
2022-12-14T15:37:29.188Z,1.60
2022-12-14T15:40:07.142Z,1.50
2022-12-14T15:42:35.699Z,1.30
2022-12-14T15:45:11.285Z,1.20
2022-12-14T15:47:40.841Z,1.20
2022-12-14T15:50:16.769Z,1.10
2022-12-14T15:52:46.959Z,1.10
2022-12-14T15:55:35.189Z,1.10
2022-12-14T15:58:11.374Z,0.90
2022-12-14T16:00:43.820Z,0.90
2022-12-14T16:03:23.078Z,0.90
2022-12-14T16:05:52.131Z,0.80
2022-12-14T16:08:24.186Z,0.70
2022-12-14T16:10:54.777Z,0.80
2022-12-14T16:13:28.636Z,0.70
2022-12-14T16:15:59.076Z,0.60
2022-12-14T16:18:29.023Z,0.50
2022-12-14T16:20:59.592Z,0.40
2022-12-14T16:23:32.174Z,0.50
2022-12-14T16:26:03.168Z,0.50
2022-12-14T16:28:34.278Z,0.50
2022-12-14T16:31:06.135Z,0.50
2022-12-14T16:33:38.654Z,0.50
2022-12-14T16:36:09.486Z,0.40
2022-12-14T16:38:43.207Z,0.40
2022-12-14T16:41:11.785Z,0.40
2022-12-14T16:43:42.018Z,0.30
2022-12-14T16:46:18.630Z,0.30
2022-12-14T16:49:22.259Z,0.20
2022-12-14T16:52:07.365Z,0.20
2022-12-14T16:54:38.901Z,0.20
2022-12-14T16:57:09.869Z,0.20
2022-12-14T16:59:43.883Z,0.10
2022-12-14T17:02:30.363Z,-0.20
2022-12-14T17:05:02.586Z,-0.40
2022-12-14T17:07:33.160Z,-0.50
2022-12-14T17:10:01.537Z,-0.50
2022-12-14T17:12:30.311Z,-0.70
2022-12-14T17:14:58.950Z,-0.60
2022-12-14T17:17:33.668Z,-0.60
2022-12-14T17:20:05.865Z,-0.60
2022-12-14T17:22:37.784Z,-0.60
2022-12-14T17:25:06.694Z,-0.60
2022-12-14T17:27:35.000Z,-0.50
2022-12-14T17:30:03.412Z,-0.60
2022-12-14T17:32:31.939Z,-0.60
2022-12-14T17:35:00.770Z,-0.70
2022-12-14T17:37:36.481Z,-0.80
2022-12-14T17:40:06.409Z,-0.70
2022-12-14T17:42:35.897Z,-0.60
2022-12-14T17:45:04.777Z,-0.80
2022-12-14T17:47:33.231Z,-0.80
2022-12-14T17:50:01.797Z,-0.70
2022-12-14T17:52:33.189Z,-0.50
2022-12-14T17:55:01.783Z,-0.30
2022-12-14T17:57:30.240Z,-0.30
2022-12-14T18:00:12.635Z,-0.20
2022-12-14T18:02:42.126Z,-0.10
2022-12-14T18:05:19.386Z,-0.10
2022-12-14T18:07:49.755Z,-0.10
2022-12-14T18:10:19.829Z,-0.20
2022-12-14T18:12:48.680Z,-0.30
2022-12-14T18:15:20.098Z,-0.40
2022-12-14T18:17:49.333Z,-0.50
2022-12-14T18:20:19.351Z,-0.40
2022-12-14T18:22:50.349Z,-0.50
2022-12-14T18:25:27.832Z,-0.50
2022-12-14T18:27:56.433Z,-0.50
2022-12-14T18:30:25.578Z,-0.50
2022-12-14T18:32:55.236Z,-0.50
2022-12-14T18:35:25.808Z,-0.50
2022-12-14T18:37:55.866Z,-0.50
2022-12-14T18:40:26.036Z,-0.50
2022-12-14T18:42:55.168Z,-0.50
2022-12-14T18:45:25.367Z,-0.40
2022-12-14T18:47:54.153Z,-0.40
2022-12-14T18:50:23.459Z,-0.50
2022-12-14T18:52:52.372Z,-0.60
2022-12-14T18:55:24.651Z,-0.60
2022-12-14T18:57:54.527Z,-0.60
2022-12-14T19:00:25.117Z,-0.60
2022-12-14T19:02:54.702Z,-0.60
2022-12-14T19:05:26.372Z,-0.50
2022-12-14T19:07:55.651Z,-0.70
2022-12-14T19:10:27.825Z,-0.70
2022-12-14T19:12:57.272Z,-0.80
2022-12-14T19:15:27.703Z,-0.80
2022-12-14T19:17:56.714Z,-0.70
2022-12-14T19:20:25.646Z,-0.70
2022-12-14T19:22:54.353Z,-0.70
2022-12-14T19:25:23.213Z,-0.80
2022-12-14T19:30:44.200Z,-0.70
2022-12-14T19:33:12.870Z,-0.70
2022-12-14T19:35:42.036Z,-0.70
2022-12-14T19:38:14.536Z,-0.80
2022-12-14T19:40:46.201Z,-0.80
2022-12-14T19:43:16.055Z,-0.70
2022-12-14T19:45:47.271Z,-0.80
2022-12-14T19:48:15.691Z,-0.80
2022-12-14T19:50:44.096Z,-0.90
2022-12-14T19:53:23.165Z,-0.80
2022-12-14T19:55:53.378Z,-0.80
2022-12-14T19:58:25.170Z,-0.70
2022-12-14T20:00:53.779Z,-0.70
2022-12-14T20:03:22.497Z,-0.60
2022-12-14T20:05:52.513Z,-0.60
2022-12-14T20:08:21.348Z,-0.60
2022-12-14T20:10:52.675Z,-0.60
2022-12-14T20:13:22.916Z,-0.70
2022-12-14T20:15:51.689Z,-0.70
2022-12-14T20:18:20.326Z,-0.60
2022-12-14T20:20:49.970Z,-0.60
2022-12-14T20:23:19.174Z,-0.60
2022-12-14T20:25:48.040Z,-0.60
2022-12-14T20:28:16.460Z,-0.70
2022-12-14T20:30:48.375Z,-0.70
2022-12-14T20:33:17.061Z,-0.80
2022-12-14T20:35:45.363Z,-0.80
2022-12-14T20:38:13.800Z,-0.70
2022-12-14T20:40:42.078Z,-0.70
2022-12-14T20:43:10.475Z,-0.60
2022-12-14T20:45:39.990Z,-0.50
2022-12-14T20:48:10.171Z,-0.50
2022-12-14T20:50:40.809Z,-0.50
2022-12-14T20:53:09.699Z,-0.50
2022-12-14T20:55:38.179Z,-0.50
2022-12-14T20:58:06.515Z,-0.50
2022-12-14T21:00:35.045Z,-0.50
2022-12-14T21:03:05.426Z,-0.50
2022-12-14T21:05:39.862Z,-0.50
2022-12-14T21:08:08.334Z,-0.50
2022-12-14T21:10:37.246Z,-0.60
2022-12-14T21:13:07.857Z,-0.60
2022-12-14T21:15:36.778Z,-0.60
2022-12-14T21:18:05.499Z,-0.60
2022-12-14T21:20:35.284Z,-0.60
2022-12-14T21:23:03.538Z,-0.60
2022-12-14T21:25:32.015Z,-0.60
2022-12-14T21:28:00.535Z,-0.60
2022-12-14T21:30:29.394Z,-0.60
2022-12-14T21:32:58.698Z,-0.60
2022-12-14T21:35:27.228Z,-0.60
2022-12-14T21:37:57.083Z,-0.70
2022-12-14T21:40:43.127Z,-0.60
2022-12-14T21:43:13.089Z,-0.70
2022-12-14T21:45:41.617Z,-0.80
2022-12-14T21:48:10.070Z,-0.80
2022-12-14T21:50:38.880Z,-0.70
2022-12-14T21:53:08.651Z,-0.70
2022-12-14T21:55:37.252Z,-0.70
2022-12-14T21:58:16.445Z,-0.70
2022-12-14T22:00:45.031Z,-0.80
2022-12-14T22:03:13.776Z,-0.70
2022-12-14T22:05:42.234Z,-0.70
2022-12-14T22:08:11.998Z,-0.70
2022-12-14T22:10:40.565Z,-0.70
2022-12-14T22:13:09.108Z,-0.70
2022-12-14T22:15:37.534Z,-0.60
2022-12-14T22:18:05.961Z,-0.50
2022-12-14T22:20:34.495Z,-0.50
2022-12-14T22:23:03.149Z,-0.60
2022-12-14T22:25:32.987Z,-0.60
2022-12-14T22:28:01.415Z,-0.40
2022-12-14T22:30:32.002Z,-0.30
2022-12-14T22:33:00.814Z,-0.40
2022-12-14T22:35:29.034Z,-0.50
2022-12-14T22:37:57.658Z,-0.50
2022-12-14T22:40:26.212Z,-0.50
2022-12-14T22:42:55.849Z,-0.50
2022-12-14T22:45:24.297Z,-0.50
2022-12-14T22:47:52.783Z,-0.30
2022-12-14T22:50:21.616Z,-0.20
2022-12-14T22:52:49.985Z,-0.20
2022-12-14T22:55:18.429Z,-0.30
2022-12-14T22:57:48.784Z,-0.20
2022-12-14T23:00:18.963Z,-0.20
2022-12-14T23:02:48.875Z,-0.20
2022-12-14T23:05:17.719Z,-0.20
2022-12-14T23:07:45.996Z,-0.20
2022-12-14T23:10:31.550Z,-0.20
2022-12-14T23:13:17.551Z,-0.20
2022-12-14T23:16:04.651Z,-0.20
2022-12-14T23:18:50.659Z,-0.20
2022-12-14T23:21:36.415Z,-0.30
2022-12-14T23:24:22.595Z,-0.50
2022-12-14T23:27:09.918Z,-0.50
2022-12-14T23:29:56.424Z,-0.50
2022-12-14T23:32:43.679Z,-0.50
2022-12-14T23:35:29.554Z,-0.50
2022-12-14T23:38:15.321Z,-0.60
2022-12-14T23:41:00.961Z,-0.70
2022-12-14T23:43:46.871Z,-0.70
2022-12-14T23:46:32.766Z,-0.70
2022-12-14T23:49:20.051Z,-0.80
2022-12-14T23:52:06.009Z,-0.80
2022-12-14T23:54:51.942Z,-0.80
2022-12-14T23:57:37.833Z,-0.70
